Time;durP1;ratioP1;P1;durP2;ratioP2;P2;SDS_P1;SDS_P2;PMS_P1;PMS_P2;Temp;Humidity;BMP_temperature;BMP_pressure;BME280_temperature;BME280_humidity;BME280_pressure;Samples;Min_cycle;Max_cycle;Signal;HPM_P1;HPM_P2
2022/04/03 00:01:35;;;;;;;;;18.50;17.50;;;;;5.48;44.71;101663.06;5016284;28;45314;-68
2022/04/03 00:04:01;;;;;;;;;16.33;16.33;;;;;5.93;43.50;101743.13;5017264;28;45547;-66
2022/04/03 00:06:26;;;;;;;;;22.25;19.25;;;;;6.08;44.21;101757.22;5017049;28;45543;-66
2022/04/03 00:08:52;;;;;;;;;18.00;17.00;;;;;6.08;44.23;101751.94;5017101;28;45526;-68
2022/04/03 00:11:17;;;;;;;;;22.00;18.75;;;;;6.12;43.93;101773.72;5016016;28;45494;-67
2022/04/03 00:13:43;;;;;;;;;21.50;18.75;;;;;4.91;44.64;101597.84;5016264;28;45676;-66
2022/04/03 00:16:09;;;;;;;;;17.00;17.00;;;;;5.85;44.75;101752.41;5015601;28;46123;-67
2022/04/03 00:18:34;;;;;;;;;17.67;13.00;;;;;5.88;44.30;101762.78;5014856;28;45363;-66
2022/04/03 00:21:00;;;;;;;;;18.33;18.00;;;;;5.85;43.96;101753.25;4999295;28;45591;-66
2022/04/03 00:23:26;;;;;;;;;15.67;15.67;;;;;6.02;44.81;101776.06;5016614;28;45354;-67
2022/04/03 00:25:52;;;;;;;;;18.00;18.00;;;;;6.08;44.66;101770.44;5015536;28;45265;-67
2022/04/03 00:28:21;;;;;;;;;22.33;19.00;;;;;6.14;44.75;101771.84;5016823;28;45341;-66
2022/04/03 00:30:46;;;;;;;;;21.67;17.00;;;;;6.07;44.83;101766.94;5017058;28;45257;-68
2022/04/03 00:33:13;;;;;;;;;18.00;17.00;;;;;6.17;43.96;101775.16;5016376;28;46403;-67
2022/04/03 00:35:39;;;;;;;;;17.67;15.00;;;;;5.96;44.83;101763.22;5016538;28;45369;-67
2022/04/03 00:38:04;;;;;;;;;22.00;18.00;;;;;5.86;44.81;101772.59;5015204;28;45338;-66
2022/04/03 00:40:30;;;;;;;;;18.00;16.00;;;;;5.33;45.36;101700.00;5016926;28;45357;-68
2022/04/03 00:42:56;;;;;;;;;17.00;16.00;;;;;5.70;44.68;101773.47;5016302;28;45741;-67
2022/04/03 00:45:22;;;;;;;;;17.33;17.33;;;;;5.73;45.69;101768.00;5015112;28;46096;-65
2022/04/03 00:47:50;;;;;;;;;22.00;16.00;;;;;5.70;45.37;101780.53;5016248;28;45415;-68
2022/04/03 00:50:17;;;;;;;;;15.67;15.67;;;;;5.67;45.06;101783.34;5016922;28;45611;-67
2022/04/03 00:52:42;;;;;;;;;17.00;16.00;;;;;5.57;46.14;101777.72;5016256;28;46789;-67
2022/04/03 00:55:08;;;;;;;;;11.00;10.33;;;;;5.60;45.79;101772.25;5015233;28;45583;-67
2022/04/03 00:57:34;;;;;;;;;10.33;9.00;;;;;5.46;46.90;101764.31;5016639;28;45361;-66
2022/04/03 01:00:01;;;;;;;;;12.00;12.00;;;;;5.50;46.45;101761.41;5016756;28;45385;-66
2022/04/03 01:02:27;;;;;;;;;20.00;16.67;;;;;5.24;45.67;101722.47;5016349;28;45944;-67
2022/04/03 01:04:52;;;;;;;;;18.00;17.00;;;;;5.30;46.53;101716.00;5016355;28;45253;-65
2022/04/03 01:07:18;;;;;;;;;17.67;17.67;;;;;5.67;46.42;101768.34;5016351;28;45499;-68
2022/04/03 01:09:44;;;;;;;;;20.00;19.00;;;;;5.27;46.49;101710.91;5016529;28;45362;-68
2022/04/03 01:12:10;;;;;;;;;12.00;12.00;;;;;5.16;46.46;101688.59;4998323;28;47525;-72
2022/04/03 01:14:40;;;;;;;;;18.33;17.00;;;;;4.56;46.52;101588.34;5016063;28;45503;-66
2022/04/03 01:17:09;;;;;;;;;20.67;18.67;;;;;5.63;46.76;101766.84;5015902;28;45245;-64
2022/04/03 01:19:35;;;;;;;;;15.00;14.00;;;;;5.66;46.69;101763.19;5015975;28;45295;-66
2022/04/03 01:22:00;;;;;;;;;16.00;15.00;;;;;5.55;46.52;101763.75;5014697;28;48339;-67
2022/04/03 01:24:26;;;;;;;;;9.67;7.33;;;;;5.36;47.16;101749.91;5014843;28;45377;-68
2022/04/03 01:26:52;;;;;;;;;15.25;15.00;;;;;5.40;47.10;101765.47;5017926;28;45389;-66
2022/04/03 01:29:18;;;;;;;;;24.75;19.25;;;;;5.38;47.86;101763.84;5019482;28;45384;-66
2022/04/03 01:31:46;;;;;;;;;14.33;14.00;;;;;5.35;47.26;101762.25;5017725;28;48244;-67
2022/04/03 01:34:12;;;;;;;;;15.75;15.75;;;;;5.28;47.62;101770.59;5019179;28;45197;-67
2022/04/03 01:36:38;;;;;;;;;13.25;11.00;;;;;5.11;47.55;101737.25;5018057;28;45501;-67
2022/04/03 01:39:03;;;;;;;;;11.75;11.75;;;;;5.27;47.84;101753.94;5019261;28;45499;-67
2022/04/03 01:41:29;;;;;;;;;16.75;16.75;;;;;5.36;48.13;101752.56;5018115;28;47245;-65
2022/04/03 01:43:54;;;;;;;;;16.67;14.67;;;;;5.43;47.17;101757.41;5018916;28;45384;-66
2022/04/03 01:46:20;;;;;;;;;17.00;16.25;;;;;5.35;47.99;101767.53;5017742;28;45712;-68
2022/04/03 01:48:45;;;;;;;;;15.75;15.75;;;;;5.34;48.31;101764.97;5017891;28;45456;-66
2022/04/03 01:51:11;;;;;;;;;14.33;14.33;;;;;5.33;48.75;101766.75;5019299;28;45663;-67
2022/04/03 01:53:36;;;;;;;;;15.25;14.00;;;;;5.17;48.11;101750.94;5018732;28;45301;-66
2022/04/03 01:56:05;;;;;;;;;17.75;17.75;;;;;4.82;48.37;101691.44;5019334;28;45391;-66
2022/04/03 01:58:31;;;;;;;;;12.00;12.00;;;;;5.32;48.52;101751.88;5019215;28;45288;-66
2022/04/03 02:00:57;;;;;;;;;16.00;15.50;;;;;5.42;48.29;101762.78;5017312;28;48090;-66
2022/04/03 02:03:23;;;;;;;;;20.00;16.50;;;;;5.42;47.62;101762.78;5018923;28;45528;-69
2022/04/03 02:05:49;;;;;;;;;19.25;16.75;;;;;5.26;48.49;101741.69;5018717;28;45394;-67
2022/04/03 02:08:15;;;;;;;;;16.75;16.50;;;;;5.32;47.54;101749.25;5018881;28;45424;-67
2022/04/03 02:10:43;;;;;;;;;16.33;16.33;;;;;5.40;48.10;101764.63;5018848;28;45884;-69
2022/04/03 02:13:09;;;;;;;;;15.67;14.33;;;;;5.30;48.01;101752.91;5017471;28;45894;-67
2022/04/03 02:15:34;;;;;;;;;16.33;16.00;;;;;5.36;47.96;101742.00;5018777;28;45221;-68
2022/04/03 02:18:00;;;;;;;;;15.00;15.00;;;;;5.47;48.08;101745.75;5017160;28;45258;-66
2022/04/03 02:20:26;;;;;;;;;14.33;12.67;;;;;5.44;47.73;101747.72;5018419;28;45563;-66
2022/04/03 02:22:51;;;;;;;;;14.33;13.00;;;;;5.47;47.95;101760.72;5018845;28;45325;-65
2022/04/03 02:25:17;;;;;;;;;16.67;15.67;;;;;5.57;48.22;101761.88;5017200;28;45187;-66
2022/04/03 02:27:46;;;;;;;;;16.67;15.00;;;;;5.03;47.99;101682.34;5018980;28;45368;-68
2022/04/03 02:30:12;;;;;;;;;21.00;18.67;;;;;5.44;48.75;101766.19;5017490;28;47205;-67
2022/04/03 02:32:39;;;;;;;;;17.00;16.00;;;;;5.39;48.66;101773.47;5018323;28;45361;-65
2022/04/03 02:35:08;;;;;;;;;15.33;15.00;;;;;5.35;48.86;101761.41;5018612;28;45510;-67
2022/04/03 02:37:36;;;;;;;;;15.67;14.33;;;;;5.18;49.14;101750.00;5016848;28;45359;-66
2022/04/03 02:40:04;;;;;;;;;16.67;15.00;;;;;5.37;49.40;101775.34;5018319;28;46776;-66
2022/04/03 02:42:30;;;;;;;;;14.67;14.67;;;;;5.44;48.57;101761.75;5018475;28;45273;-68
2022/04/03 02:44:55;;;;;;;;;16.00;14.75;;;;;5.41;48.89;101767.19;5018065;28;45483;-67
2022/04/03 02:47:22;;;;;;;;;14.75;13.50;;;;;5.23;48.37;101741.00;5018367;28;45390;-67
2022/04/03 02:49:50;;;;;;;;;17.50;15.00;;;;;5.39;48.57;101755.88;5016871;28;46421;-67
2022/04/03 02:52:16;;;;;;;;;14.00;13.67;;;;;5.41;49.06;101755.81;5016913;28;45532;-67
2022/04/03 02:54:41;;;;;;;;;7.33;6.00;;;;;5.50;47.75;101761.41;5017004;28;45481;-66
2022/04/03 02:57:07;;;;;;;;;16.00;16.00;;;;;5.50;48.68;101755.28;5016880;28;45536;-68
2022/04/03 02:59:33;;;;;;;;;15.00;15.00;;;;;5.58;48.28;101753.03;5017677;28;46263;-71
2022/04/03 03:01:59;;;;;;;;;17.00;14.33;;;;;5.11;49.01;101703.00;5016731;28;45575;-67
2022/04/03 03:04:24;;;;;;;;;17.00;16.00;;;;;5.42;48.71;101768.91;5018101;28;45281;-67
2022/04/03 03:06:50;;;;;;;;;14.75;14.75;;;;;5.21;48.94;101762.19;5018497;28;45517;-67
2022/04/03 03:09:17;;;;;;;;;14.00;14.00;;;;;5.19;49.46;101764.88;5017457;28;45266;-69
2022/04/03 03:11:42;;;;;;;;;17.00;16.00;;;;;5.27;49.63;101774.16;5018004;28;45226;-68
2022/04/03 03:14:08;;;;;;;;;17.00;12.33;;;;;5.30;49.41;101771.34;5011666;28;45380;-70
2022/04/03 03:16:33;;;;;;;;;20.25;15.25;;;;;5.31;49.03;101762.50;5006981;28;46052;-69
2022/04/03 03:18:58;;;;;;;;;11.00;11.00;;;;;4.80;50.03;101698.53;5017306;28;46649;-67
2022/04/03 03:21:24;;;;;;;;;16.00;16.00;;;;;5.23;49.95;101780.56;5017647;28;45372;-66
2022/04/03 03:23:49;;;;;;;;;23.33;17.00;;;;;5.24;49.30;101761.16;5017980;28;45502;-67
2022/04/03 03:26:15;;;;;;;;;15.50;15.50;;;;;5.38;49.34;101787.59;5018444;28;45585;-66
2022/04/03 03:28:40;;;;;;;;;17.50;16.50;;;;;5.34;49.38;101779.00;5017712;28;46315;-66
2022/04/03 03:31:05;;;;;;;;;12.33;11.67;;;;;5.26;50.47;101797.06;5017718;28;45411;-65
2022/04/03 03:33:31;;;;;;;;;17.25;16.25;;;;;5.16;49.75;101783.50;5017686;28;45673;-66
2022/04/03 03:35:56;;;;;;;;;12.33;12.33;;;;;5.08;50.11;101780.44;5017898;28;45306;-67
2022/04/03 03:38:22;;;;;;;;;17.33;16.33;;;;;5.05;50.72;101777.97;5017531;28;46473;-66
2022/04/03 03:40:48;;;;;;;;;14.33;13.33;;;;;5.04;49.60;101788.63;5017738;28;45340;-69
2022/04/03 03:43:14;;;;;;;;;13.00;12.00;;;;;4.99;50.03;101780.94;5017717;28;45336;-66
2022/04/03 03:45:39;;;;;;;;;14.33;13.00;;;;;4.96;50.19;101778.47;5017595;28;45262;-67
2022/04/03 03:48:05;;;;;;;;;11.00;8.67;;;;;4.98;50.08;101787.13;5017406;28;45380;-66
2022/04/03 03:50:30;;;;;;;;;15.00;14.00;;;;;4.86;50.71;101783.41;5017252;28;45537;-67
2022/04/03 03:52:58;;;;;;;;;10.33;10.33;;;;;4.90;50.29;101781.44;5016609;28;45528;-66
2022/04/03 03:55:24;;;;;;;;;17.00;15.00;;;;;4.87;49.76;101760.53;5016268;28;45805;-66
2022/04/03 03:57:50;;;;;;;;;16.50;15.75;;;;;4.97;51.04;101789.84;5017446;28;45727;-67
2022/04/03 04:00:21;;;;;;;;;18.67;15.67;;;;;4.91;50.63;101782.28;5016043;28;45567;-67
2022/04/03 04:02:47;;;;;;;;;14.67;14.67;;;;;4.82;50.87;101789.75;5016749;28;46047;-66
2022/04/03 04:05:15;;;;;;;;;14.00;10.33;;;;;4.82;50.81;101783.66;5017714;28;45576;-65
2022/04/03 04:07:45;;;;;;;;;14.33;10.00;;;;;4.63;50.63;101761.84;5016190;28;45544;-68
2022/04/03 04:10:13;;;;;;;;;13.25;10.50;;;;;4.69;50.85;101777.31;5015981;28;45356;-65
2022/04/03 04:12:39;;;;;;;;;13.67;10.00;;;;;4.83;51.16;101785.34;5017468;28;45465;-66
2022/04/03 04:15:06;;;;;;;;;17.67;15.00;;;;;4.78;50.98;101787.34;5016115;28;45481;-66
2022/04/03 04:17:39;;;;;;;;;14.00;14.00;;;;;4.74;51.09;101794.56;5015715;28;46661;-65
2022/04/03 04:20:06;;;;;;;;;14.33;12.00;;;;;4.75;50.49;101795.41;5015727;28;45396;-66
2022/04/03 04:22:31;;;;;;;;;13.67;11.00;;;;;4.72;50.87;101806.13;5016084;28;45366;-67
2022/04/03 04:24:57;;;;;;;;;14.33;11.67;;;;;4.73;50.90;101800.78;5016065;28;45461;-67
2022/04/03 04:27:22;;;;;;;;;9.75;7.50;;;;;4.78;51.42;101800.53;5017224;28;46365;-67
2022/04/03 04:29:48;;;;;;;;;18.67;15.00;;;;;4.70;50.96;101789.56;5016223;28;45562;-66
2022/04/03 04:32:13;;;;;;;;;15.33;14.33;;;;;4.42;50.25;101740.97;5015700;28;45619;-67
2022/04/03 04:34:42;;;;;;;;;18.67;14.00;;;;;3.81;50.78;101654.66;5012605;28;45326;-66
2022/04/03 04:37:07;;;;;;;;;15.33;15.33;;;;;4.50;50.87;101782.69;4997496;28;45761;-67
2022/04/03 04:39:33;;;;;;;;;13.67;11.00;;;;;4.70;51.00;101815.88;4979333;28;45581;-65
2022/04/03 04:41:59;;;;;;;;;9.00;8.67;;;;;4.61;50.97;101816.38;4997271;28;45426;-67
2022/04/03 04:44:25;;;;;;;;;13.67;12.67;;;;;4.31;51.16;101788.06;5004907;28;45359;-66
2022/04/03 04:46:50;;;;;;;;;11.67;10.67;;;;;4.32;51.19;101799.44;5017134;28;45984;-67
2022/04/03 04:49:17;;;;;;;;;12.33;10.67;;;;;4.49;51.18;101813.44;5015755;28;45499;-67
2022/04/03 04:51:43;;;;;;;;;14.33;12.33;;;;;4.61;51.27;101811.13;5017054;28;45502;-68
2022/04/03 04:54:09;;;;;;;;;9.00;9.00;;;;;4.67;51.20;101816.06;5016969;28;45234;-69
2022/04/03 04:56:35;;;;;;;;;13.00;11.00;;;;;4.52;51.49;101815.91;5016523;28;46039;-67
2022/04/03 04:59:02;;;;;;;;;9.67;9.67;;;;;4.68;50.69;101830.94;5016963;28;45316;-67
2022/04/03 05:01:27;;;;;;;;;4.00;4.00;;;;;4.28;51.04;101759.25;5018188;28;45304;-68
2022/04/03 05:03:52;;;;;;;;;14.33;13.00;;;;;4.65;50.04;101818.78;5019201;28;45259;-69
2022/04/03 05:06:18;;;;;;;;;14.00;13.67;;;;;4.72;50.99;101829.84;5020432;28;46494;-68
2022/04/03 05:08:44;;;;;;;;;14.00;14.00;;;;;4.73;50.76;101842.06;5020318;28;45273;-68
2022/04/03 05:11:13;;;;;;;;;14.00;12.00;;;;;4.49;51.39;101813.44;5018995;28;45357;-66
2022/04/03 05:13:38;;;;;;;;;11.00;10.33;;;;;4.56;51.46;101830.63;5020158;28;45505;-68
2022/04/03 05:16:05;;;;;;;;;14.67;11.33;;;;;4.75;51.09;101837.56;5016846;28;47501;-67
2022/04/03 05:18:31;;;;;;;;;14.67;12.67;;;;;4.63;51.66;101825.91;5015715;28;45310;-67
2022/04/03 05:20:56;;;;;;;;;12.00;9.67;;;;;4.66;51.66;101846.81;4999224;28;45537;-70
2022/04/03 05:23:22;;;;;;;;;11.75;11.00;;;;;4.52;51.14;101849.28;5000820;28;45230;-69
2022/04/03 05:25:47;;;;;;;;;14.00;14.00;;;;;4.12;51.54;101792.53;4998513;28;45697;-68
2022/04/03 05:28:13;;;;;;;;;17.00;14.33;;;;;4.44;50.80;101851.47;5005077;28;45515;-66
2022/04/03 05:30:38;;;;;;;;;14.00;14.00;;;;;4.36;51.34;101849.22;5018993;28;45337;-66
2022/04/03 05:33:04;;;;;;;;;16.67;12.67;;;;;4.26;51.63;101853.25;5019030;28;45610;-67
2022/04/03 05:35:33;;;;;;;;;17.25;15.50;;;;;4.10;51.82;101841.78;5019720;28;46552;-69
2022/04/03 05:37:58;;;;;;;;;17.67;15.00;;;;;3.90;52.07;101824.31;5019197;28;45213;-64
2022/04/03 05:40:24;;;;;;;;;14.00;12.67;;;;;4.18;52.11;101863.28;5019331;28;45557;-66
2022/04/03 05:42:49;;;;;;;;;14.75;12.50;;;;;4.01;51.87;101855.38;5019986;28;45213;-66
2022/04/03 05:45:15;;;;;;;;;10.33;10.33;;;;;3.86;51.70;101818.38;5019365;28;46295;-68
2022/04/03 05:47:41;;;;;;;;;17.00;15.00;;;;;4.10;51.97;101862.81;5019350;28;45346;-68
2022/04/03 05:50:06;;;;;;;;;12.00;12.00;;;;;4.13;51.45;101867.94;5018040;28;45308;-68
2022/04/03 05:52:47;;;;;;;;;14.00;13.25;;;;;3.90;51.67;101816.44;5034867;28;45603;-67
2022/04/03 05:55:15;;;;;;;;;9.00;9.00;;;;;4.21;51.40;101855.25;5017986;28;45602;-68
2022/04/03 05:57:41;;;;;;;;;16.00;16.00;;;;;4.15;51.21;101860.81;5017400;28;45432;-67
2022/04/03 06:00:12;;;;;;;;;13.33;12.33;;;;;4.01;51.21;101850.97;5000891;28;45561;-67
2022/04/03 06:02:42;;;;;;;;;10.25;9.25;;;;;3.95;51.84;101867.91;5019264;28;45383;-68
2022/04/03 06:05:08;;;;;;;;;20.50;15.00;;;;;4.00;51.56;101854.50;5018827;28;46234;-66
2022/04/03 06:07:34;;;;;;;;;14.50;14.25;;;;;3.84;51.69;101849.16;5017607;28;45416;-67
2022/04/03 06:09:59;;;;;;;;;17.00;13.50;;;;;3.52;51.66;101828.78;5018870;28;45314;-68
2022/04/03 06:12:24;;;;;;;;;14.00;12.00;;;;;3.75;51.89;101872.41;5000777;28;45356;-68
2022/04/03 06:14:50;;;;;;;;;17.50;15.25;;;;;3.79;51.89;101874.81;5017484;28;48444;-67
2022/04/03 06:17:15;;;;;;;;;9.75;9.75;;;;;3.73;51.83;101880.38;5018812;28;45300;-67
2022/04/03 06:19:41;;;;;;;;;13.50;13.00;;;;;3.78;51.26;101878.38;5019008;28;45380;-65
2022/04/03 06:22:06;;;;;;;;;11.67;9.00;;;;;3.92;51.29;101886.47;5019141;28;45540;-68
2022/04/03 06:24:32;;;;;;;;;14.25;14.25;;;;;3.89;50.60;101891.88;5017259;28;47234;-67
2022/04/03 06:26:57;;;;;;;;;19.00;14.50;;;;;3.50;51.03;101833.28;5017249;28;45689;-67
2022/04/03 06:29:22;;;;;;;;;13.25;10.75;;;;;3.66;50.65;101844.78;5018709;28;45371;-67
2022/04/03 06:31:48;;;;;;;;;15.50;14.75;;;;;3.93;50.81;101887.31;5018408;28;45175;-67
2022/04/03 06:34:14;;;;;;;;;8.33;8.00;;;;;4.00;49.36;101893.13;5017730;28;45254;-66
2022/04/03 06:36:39;;;;;;;;;19.67;16.33;;;;;4.55;49.75;101905.28;5017818;28;45492;-67
2022/04/03 06:39:05;;;;;;;;;17.00;16.00;;;;;5.08;48.96;101891.16;5019175;28;45330;-67
2022/04/03 06:41:32;;;;;;;;;14.67;14.33;;;;;5.70;47.15;101876.34;5019111;28;45190;-68
2022/04/03 06:43:59;;;;;;;;;15.67;15.00;;;;;6.04;44.78;101861.31;5018739;28;46318;-67
2022/04/03 06:46:27;;;;;;;;;16.33;12.33;;;;;6.85;43.94;101898.81;5018378;28;45406;-67
2022/04/03 06:48:53;;;;;;;;;19.00;15.33;;;;;7.27;41.99;101890.94;5018766;28;45211;-67
2022/04/03 06:51:18;;;;;;;;;13.00;12.00;;;;;7.85;40.78;101904.94;5014869;28;45590;-67
2022/04/03 06:53:43;;;;;;;;;12.33;12.00;;;;;8.42;39.57;101907.44;5014058;28;45512;-68
2022/04/03 06:56:09;;;;;;;;;15.33;12.33;;;;;8.73;38.78;101891.16;4990567;28;45417;-67
2022/04/03 06:58:35;;;;;;;;;13.00;12.00;;;;;8.81;37.89;101846.44;5016831;28;45433;-69
2022/04/03 07:01:02;;;;;;;;;15.00;13.67;;;;;9.63;36.96;101905.25;5018785;28;45459;-68
2022/04/03 07:03:28;;;;;;;;;14.33;14.33;;;;;9.92;36.37;101906.66;5018014;28;45887;-67
2022/04/03 07:05:59;;;;;;;;;14.33;14.33;;;;;10.23;35.76;101904.47;5017533;28;45524;-66
2022/04/03 07:08:25;;;;;;;;;14.00;14.00;;;;;10.48;34.35;101904.31;5018557;28;45235;-67
2022/04/03 07:10:50;;;;;;;;;16.33;14.33;;;;;10.44;34.79;101926.78;5017535;28;45583;-67
2022/04/03 07:13:16;;;;;;;;;13.33;11.00;;;;;10.34;35.21;101918.63;5018009;28;46409;-67
2022/04/03 07:15:43;;;;;;;;;13.33;12.00;;;;;9.74;34.66;101870.81;5017680;28;45234;-68
2022/04/03 07:18:08;;;;;;;;;12.67;11.00;;;;;10.08;35.24;101935.63;5018115;28;45483;-69
2022/04/03 07:20:34;;;;;;;;;11.33;11.33;;;;;9.73;35.25;101920.41;5017735;28;45459;-74
2022/04/03 07:23:00;;;;;;;;;13.00;11.00;;;;;9.51;36.20;101927.34;5015559;28;46709;-71
2022/04/03 07:25:26;;;;;;;;;12.00;12.00;;;;;9.01;36.03;101865.38;5015952;28;45447;-70
2022/04/03 07:27:51;;;;;;;;;12.33;11.00;;;;;9.55;35.31;101940.31;5035848;28;45348;-71
2022/04/03 07:30:17;;;;;;;;;11.00;9.00;;;;;9.69;35.70;101934.03;5030537;28;45655;-70
2022/04/03 07:32:42;;;;;;;;;10.00;10.00;;;;;9.72;35.02;101872.72;5017078;28;45881;-69
2022/04/03 07:35:08;;;;;;;;;15.00;13.67;;;;;10.04;34.13;101899.63;5016490;28;45559;-70
2022/04/03 07:37:34;;;;;;;;;14.67;12.00;;;;;10.10;34.67;101932.84;5018176;28;45275;-68
2022/04/03 07:40:03;;;;;;;;;12.33;10.33;;;;;10.22;34.59;101922.22;5018367;28;45496;-69
2022/04/03 07:42:29;;;;;;;;;7.67;6.33;;;;;10.51;33.50;101913.88;5021797;28;48573;-69
2022/04/03 07:44:55;;;;;;;;;13.67;12.33;;;;;10.57;33.38;101930.19;5015380;28;45413;-69
2022/04/03 07:47:21;;;;;;;;;16.00;14.33;;;;;10.84;33.57;101924.63;5017875;28;45447;-70
2022/04/03 07:49:46;;;;;;;;;14.33;10.00;;;;;11.28;32.84;101946.97;5018028;28;45243;-69
2022/04/03 07:52:12;;;;;;;;;15.33;14.00;;;;;11.14;31.72;101948.03;5017140;28;45569;-71
2022/04/03 07:54:38;;;;;;;;;12.00;11.00;;;;;10.49;32.88;101953.88;5016315;28;45337;-72
2022/04/03 07:57:06;;;;;;;;;8.00;7.00;;;;;10.47;33.04;101936.34;5017870;28;45522;-68
2022/04/03 07:59:31;;;;;;;;;9.33;8.00;;;;;10.33;33.21;101940.00;5016613;28;46366;-68
2022/04/03 08:01:57;;;;;;;;;10.00;10.00;;;;;10.75;32.12;101940.44;5016388;28;46592;-68
2022/04/03 08:04:22;;;;;;;;;10.00;10.00;;;;;10.65;32.40;101927.84;5020963;28;45171;-69
2022/04/03 08:06:48;;;;;;;;;10.00;10.00;;;;;11.10;32.36;101959.88;5015159;28;45643;-68
2022/04/03 08:09:14;;;;;;;;;12.00;8.00;;;;;11.14;31.55;101897.47;5008576;28;45755;-69
2022/04/03 08:11:42;;;;;;;;;7.00;6.00;;;;;11.59;30.71;101956.91;5007181;28;46153;-67
2022/04/03 08:14:08;;;;;;;;;10.00;10.00;;;;;11.84;30.91;101965.66;5011095;28;46635;-68
2022/04/03 08:16:34;;;;;;;;;14.00;13.00;;;;;11.81;30.50;101873.50;5014975;28;45423;-65
2022/04/03 08:19:02;;;;;;;;;10.33;9.33;;;;;12.49;30.21;101952.31;5017844;28;45289;-69
2022/04/03 08:21:28;;;;;;;;;8.67;8.33;;;;;12.65;29.16;101948.38;5012721;28;48059;-71
2022/04/03 08:23:53;;;;;;;;;11.33;11.33;;;;;12.68;28.94;101945.44;5013836;28;45951;-74
2022/04/03 08:26:19;;;;;;;;;9.67;7.67;;;;;12.69;28.03;101936.47;5009611;28;45392;-68
2022/04/03 08:28:44;;;;;;;;;8.00;7.67;;;;;12.66;28.75;101968.75;5016211;28;45475;-65
2022/04/03 08:31:10;;;;;;;;;12.67;10.67;;;;;12.64;29.23;101965.34;5015972;28;45813;-66
2022/04/03 08:33:35;;;;;;;;;8.67;8.67;;;;;12.90;28.29;101966.69;5016410;28;45395;-71
2022/04/03 08:36:03;;;;;;;;;12.33;6.67;;;;;12.98;27.95;101942.84;5018125;28;45458;-72
2022/04/03 08:38:28;;;;;;;;;9.00;9.00;;;;;12.74;27.88;101903.06;5020598;28;45530;-65
2022/04/03 08:40:54;;;;;;;;;5.67;5.67;;;;;13.49;27.01;101963.44;5019156;28;45534;-67
2022/04/03 08:43:20;;;;;;;;;11.33;10.33;;;;;13.57;27.11;101971.59;5017684;28;45346;-65
2022/04/03 08:45:45;;;;;;;;;12.33;9.67;;;;;14.01;25.91;101964.16;5017648;28;45215;-63
2022/04/03 08:48:11;;;;;;;;;8.67;8.67;;;;;14.25;25.48;101961.16;5017569;28;45587;-66
2022/04/03 08:50:39;;;;;;;;;10.00;7.50;;;;;14.61;24.76;101963.16;5025048;28;46072;-65
2022/04/03 08:53:06;;;;;;;;;9.00;8.00;;;;;15.01;24.75;101972.03;5033664;28;45542;-64
2022/04/03 08:55:32;;;;;;;;;6.00;5.33;;;;;15.15;24.14;101972.44;5022530;28;45405;-66
2022/04/03 08:57:58;;;;;;;;;6.67;6.67;;;;;14.46;24.90;101953.03;5018840;28;45483;-65
2022/04/03 09:00:24;;;;;;;;;5.33;5.33;;;;;14.76;24.35;101957.41;5019519;28;46407;-70
2022/04/03 09:02:50;;;;;;;;;9.00;9.00;;;;;14.52;24.00;101907.81;5017625;28;45755;-65
2022/04/03 09:05:17;;;;;;;;;7.00;4.67;;;;;14.44;24.54;101961.22;5019035;28;45546;-64
2022/04/03 09:07:43;;;;;;;;;9.33;7.33;;;;;14.69;24.74;101959.81;5028793;28;45507;-64
2022/04/03 09:10:13;;;;;;;;;9.67;8.67;;;;;14.85;24.71;101962.75;5026186;28;46248;-65
2022/04/03 09:12:57;;;;;;;;;9.33;8.33;;;;;15.28;23.46;101901.63;5019378;28;45415;-65
2022/04/03 09:15:27;;;;;;;;;8.00;6.00;;;;;15.89;22.26;101944.84;5037780;28;45332;-64
2022/04/03 09:17:57;;;;;;;;;7.00;7.00;;;;;14.84;23.05;101915.56;5017956;28;45511;-65
2022/04/03 09:20:26;;;;;;;;;3.33;3.33;;;;;15.11;22.96;101952.28;5018011;28;48331;-64
2022/04/03 09:23:00;;;;;;;;;6.33;6.33;;;;;15.99;22.16;101956.34;5018605;28;45641;-68
2022/04/03 09:25:30;;;;;;;;;8.33;5.00;;;;;16.42;21.37;101958.34;5018605;28;45431;-66
2022/04/03 09:27:57;;;;;;;;;7.00;7.00;;;;;17.39;20.17;101940.47;5019505;28;45322;-65
2022/04/03 09:30:29;;;;;;;;;5.67;5.67;;;;;18.46;18.90;101948.81;5017739;28;46532;-65
2022/04/03 09:32:57;;;;;;;;;4.67;4.67;;;;;19.56;17.59;101950.97;5018302;28;45329;-65
2022/04/03 09:35:44;;;;;;;;;7.33;6.33;;;;;19.97;17.22;101964.28;5019020;28;45519;-65
2022/04/03 09:38:14;;;;;;;;;2.33;2.33;;;;;20.62;16.65;101959.38;5016072;28;45567;-66
2022/04/03 09:40:42;;;;;;;;;4.00;4.00;;;;;21.66;15.67;101946.91;5016987;28;47385;-67
2022/04/03 09:43:16;;;;;;;;;2.33;2.33;;;;;20.58;15.24;101957.22;5014960;28;45505;-65
2022/04/03 09:45:52;;;;;;;;;1.33;1.33;;;;;19.56;16.26;101950.97;5017011;28;45596;-67
2022/04/03 09:48:47;;;;;;;;;4.00;3.00;;;;;20.73;15.23;101952.69;5018686;28;45389;-67
2022/04/03 09:51:19;;;;;;;;;2.33;2.00;;;;;20.36;14.39;101934.53;5005209;28;45636;-67
2022/04/03 09:53:45;;;;;;;;;3.00;3.00;;;;;19.98;14.78;101952.47;5016126;28;45479;-67
2022/04/03 09:56:23;;;;;;;;;2.00;1.00;;;;;18.94;15.07;101958.81;5018560;28;45411;-66
2022/04/03 09:58:52;;;;;;;;;3.33;2.00;;;;;18.77;15.41;101965.19;5001845;28;46204;-67
2022/04/03 10:01:31;;;;;;;;;1.00;1.00;;;;;19.51;15.13;101955.16;5018378;28;46386;-67
2022/04/03 10:04:00;;;;;;;;;3.00;2.00;;;;;19.32;15.10;101959.09;5018007;28;45665;-66
2022/04/03 10:06:26;;;;;;;;;3.00;2.00;;;;;18.59;15.70;101949.16;5018451;28;45272;-67
2022/04/03 10:08:52;;;;;;;;;3.00;2.00;;;;;18.15;16.47;101953.97;5017790;28;45200;-66
2022/04/03 10:11:19;;;;;;;;;2.00;2.00;;;;;16.83;17.48;101949.84;5018517;28;45629;-67
2022/04/03 10:13:44;;;;;;;;;1.33;1.33;;;;;16.41;17.92;101950.44;5018303;28;45388;-68
2022/04/03 10:16:11;;;;;;;;;4.33;3.00;;;;;16.00;18.19;101941.09;5014816;28;45423;-69
2022/04/03 10:18:40;;;;;;;;;2.00;2.00;;;;;15.33;18.87;101951.09;5016220;28;45554;-65
2022/04/03 10:21:18;;;;;;;;;1.00;1.00;;;;;14.85;19.42;101954.72;5017635;28;47103;-65
2022/04/03 10:23:45;;;;;;;;;3.00;2.00;;;;;13.89;20.61;101946.56;5015468;28;45519;-66
2022/04/03 10:26:15;;;;;;;;;4.00;2.67;;;;;13.42;21.14;101945.41;5013420;28;45501;-66
2022/04/03 10:28:47;;;;;;;;;3.67;2.67;;;;;12.42;22.09;101956.47;4999080;28;45342;-66
2022/04/03 10:31:15;;;;;;;;;2.33;2.33;;;;;12.08;23.18;101957.50;5009611;28;45618;-66
2022/04/03 10:33:45;;;;;;;;;4.00;4.00;;;;;11.75;23.46;101951.22;5016678;28;45322;-66
2022/04/03 10:36:13;;;;;;;;;4.00;3.00;;;;;11.10;24.34;101959.03;5015469;28;45566;-66
2022/04/03 10:38:43;;;;;;;;;2.33;2.33;;;;;11.08;24.71;101945.84;5014636;28;45494;-66
2022/04/03 10:41:27;;;;;;;;;5.00;5.00;;;;;10.95;24.83;101948.59;5016279;28;45589;-66
2022/04/03 10:44:13;;;;;;;;;2.00;2.00;;;;;10.46;25.51;101959.44;5013158;28;46041;-67
2022/04/03 10:47:03;;;;;;;;;2.67;2.67;;;;;10.28;26.33;101955.47;5009981;28;45479;-65
2022/04/03 10:49:30;;;;;;;;;3.00;3.00;;;;;9.83;26.78;101939.22;5017403;28;45432;-67
2022/04/03 10:52:22;;;;;;;;;5.33;4.33;;;;;9.90;26.87;101932.47;5016016;28;47283;-68
2022/04/03 10:54:57;;;;;;;;;2.00;2.00;;;;;9.69;27.13;101947.31;5016803;28;45447;-66
2022/04/03 10:57:43;;;;;;;;;3.00;3.00;;;;;9.52;27.78;101942.34;5016325;28;45480;-66
2022/04/03 11:00:53;;;;;;;;;1.00;1.00;;;;;9.35;27.92;101954.97;5017755;28;46177;-68
2022/04/03 11:03:19;;;;;;;;;3.00;3.00;;;;;9.40;27.64;101952.84;5015930;28;45596;-67
2022/04/03 11:08:53;;;;;;;;;5.00;5.00;;;;;9.30;27.75;101933.22;5012907;28;45352;-67
2022/04/03 11:11:44;;;;;;;;;4.33;4.33;;;;;8.76;27.52;101835.28;5018302;28;45689;-68
2022/04/03 11:14:57;;;;;;;;;3.00;3.00;;;;;9.27;27.75;101930.78;5008331;28;47108;-67
2022/04/03 11:17:48;;;;;;;;;4.00;4.00;;;;;9.47;27.87;101910.81;5000130;28;45465;-68
2022/04/03 11:20:42;;;;;;;;;4.00;4.00;;;;;9.12;28.49;101910.59;5015781;28;45431;-67
2022/04/03 11:23:11;;;;;;;;;5.33;5.00;;;;;9.05;28.25;101920.81;5018167;28;45530;-70
2022/04/03 11:25:38;;;;;;;;;4.00;4.00;;;;;9.11;28.32;101887.69;5017824;28;46373;-69